Portland, Texas
Current Conditions -  °F | °C
As of 4:15 PM on Thursday 18 Dec 2014 (Local Time) from KTFP Reporting Station
Overcast Overcast  
Wind Chill: 73°   Ceiling: 8500
Heat Index: 73°   Visibility: 10mi
Dew Point: 66°   Wind: 7mph
Humidity: 79%   Direction: 140°SE
Pressure: 29.97"   Gusts: NA
Location:  27.88°N, 97.32°W
Report Text: KTFP 182215Z AUTO 14006KT 10SM SCT021 SCT029 OVC085 23/19 A2997 RMK AO2 T02270189
Loading
Personal Weather Stations






























Interactive Weather Map New forecast layout! Learn more

10-Day Weather Forecast

Advertisements
Track Severe Weather on mobile